sensor_id;sensor_type;location;lat;lon;timestamp;P1;durP1;ratioP1;P2;durP2;ratioP2
47599;SDS011;33323;52.124;6.018;2023-07-28T00:01:00;11.45;;;6.95;;
47599;SDS011;33323;52.124;6.018;2023-07-28T00:03:27;10.95;;;7.03;;
47599;SDS011;33323;52.124;6.018;2023-07-28T00:05:54;13.80;;;8.32;;
47599;SDS011;33323;52.124;6.018;2023-07-28T00:08:21;13.52;;;7.90;;
47599;SDS011;33323;52.124;6.018;2023-07-28T00:10:48;16.85;;;7.32;;
47599;SDS011;33323;52.124;6.018;2023-07-28T00:13:15;13.02;;;7.50;;
47599;SDS011;33323;52.124;6.018;2023-07-28T00:15:42;13.45;;;8.27;;
47599;SDS011;33323;52.124;6.018;2023-07-28T00:18:09;10.35;;;7.53;;
47599;SDS011;33323;52.124;6.018;2023-07-28T00:20:36;13.63;;;7.70;;
47599;SDS011;33323;52.124;6.018;2023-07-28T00:23:03;16.33;;;8.20;;
47599;SDS011;33323;52.124;6.018;2023-07-28T00:25:30;10.27;;;6.65;;
47599;SDS011;33323;52.124;6.018;2023-07-28T00:27:57;11.95;;;7.10;;
47599;SDS011;33323;52.124;6.018;2023-07-28T00:30:24;11.18;;;6.88;;
47599;SDS011;33323;52.124;6.018;2023-07-28T00:32:53;10.80;;;7.80;;
47599;SDS011;33323;52.124;6.018;2023-07-28T00:35:20;14.18;;;8.18;;
47599;SDS011;33323;52.124;6.018;2023-07-28T00:37:47;12.55;;;7.70;;
47599;SDS011;33323;52.124;6.018;2023-07-28T00:40:14;13.35;;;7.70;;
47599;SDS011;33323;52.124;6.018;2023-07-28T00:42:41;20.08;;;8.82;;
47599;SDS011;33323;52.124;6.018;2023-07-28T00:45:08;13.70;;;8.13;;
47599;SDS011;33323;52.124;6.018;2023-07-28T00:47:35;12.75;;;7.47;;
47599;SDS011;33323;52.124;6.018;2023-07-28T00:50:03;16.13;;;8.27;;
47599;SDS011;33323;52.124;6.018;2023-07-28T00:52:31;13.32;;;7.20;;
47599;SDS011;33323;52.124;6.018;2023-07-28T00:54:58;14.82;;;8.20;;
47599;SDS011;33323;52.124;6.018;2023-07-28T00:57:26;12.68;;;7.82;;
47599;SDS011;33323;52.124;6.018;2023-07-28T00:59:53;11.82;;;7.70;;
47599;SDS011;33323;52.124;6.018;2023-07-28T01:02:20;15.30;;;8.00;;
47599;SDS011;33323;52.124;6.018;2023-07-28T01:04:48;13.88;;;7.88;;
47599;SDS011;33323;52.124;6.018;2023-07-28T01:10:00;11.57;;;7.72;;
47599;SDS011;33323;52.124;6.018;2023-07-28T01:12:33;13.60;;;7.35;;
47599;SDS011;33323;52.124;6.018;2023-07-28T01:15:00;15.32;;;7.88;;
47599;SDS011;33323;52.124;6.018;2023-07-28T01:17:27;16.17;;;7.95;;
47599;SDS011;33323;52.124;6.018;2023-07-28T01:19:54;13.10;;;8.25;;
47599;SDS011;33323;52.124;6.018;2023-07-28T01:27:45;14.43;;;8.15;;
47599;SDS011;33323;52.124;6.018;2023-07-28T01:30:13;15.40;;;8.25;;
47599;SDS011;33323;52.124;6.018;2023-07-28T01:32:41;17.05;;;7.88;;
47599;SDS011;33323;52.124;6.018;2023-07-28T01:35:08;14.70;;;7.57;;
47599;SDS011;33323;52.124;6.018;2023-07-28T01:37:35;17.17;;;8.40;;
47599;SDS011;33323;52.124;6.018;2023-07-28T01:40:02;13.73;;;8.00;;
47599;SDS011;33323;52.124;6.018;2023-07-28T01:42:30;14.85;;;8.23;;
47599;SDS011;33323;52.124;6.018;2023-07-28T01:44:57;14.75;;;7.95;;
47599;SDS011;33323;52.124;6.018;2023-07-28T01:47:24;15.73;;;8.10;;
47599;SDS011;33323;52.124;6.018;2023-07-28T01:49:51;17.27;;;9.32;;
47599;SDS011;33323;52.124;6.018;2023-07-28T01:52:18;16.25;;;8.65;;
47599;SDS011;33323;52.124;6.018;2023-07-28T01:54:45;17.38;;;8.75;;
47599;SDS011;33323;52.124;6.018;2023-07-28T01:57:13;17.05;;;8.15;;
47599;SDS011;33323;52.124;6.018;2023-07-28T01:59:40;18.00;;;7.80;;
47599;SDS011;33323;52.124;6.018;2023-07-28T02:02:07;11.55;;;7.82;;
47599;SDS011;33323;52.124;6.018;2023-07-28T02:04:34;13.57;;;7.40;;
47599;SDS011;33323;52.124;6.018;2023-07-28T02:07:01;16.45;;;8.40;;
47599;SDS011;33323;52.124;6.018;2023-07-28T02:09:28;15.75;;;8.70;;
47599;SDS011;33323;52.124;6.018;2023-07-28T02:11:55;18.80;;;8.95;;
47599;SDS011;33323;52.124;6.018;2023-07-28T02:14:22;16.65;;;9.65;;
47599;SDS011;33323;52.124;6.018;2023-07-28T02:16:49;18.15;;;9.10;;
47599;SDS011;33323;52.124;6.018;2023-07-28T02:19:16;17.13;;;9.57;;
47599;SDS011;33323;52.124;6.018;2023-07-28T02:21:43;21.05;;;9.93;;
47599;SDS011;33323;52.124;6.018;2023-07-28T02:24:10;22.90;;;11.23;;
47599;SDS011;33323;52.124;6.018;2023-07-28T02:26:37;22.13;;;10.55;;
47599;SDS011;33323;52.124;6.018;2023-07-28T02:29:04;21.65;;;10.23;;
47599;SDS011;33323;52.124;6.018;2023-07-28T02:31:31;22.35;;;9.98;;
47599;SDS011;33323;52.124;6.018;2023-07-28T02:33:59;20.23;;;10.63;;
47599;SDS011;33323;52.124;6.018;2023-07-28T02:36:26;23.27;;;11.15;;
47599;SDS011;33323;52.124;6.018;2023-07-28T02:38:53;23.60;;;10.63;;
47599;SDS011;33323;52.124;6.018;2023-07-28T02:41:20;24.50;;;11.32;;
47599;SDS011;33323;52.124;6.018;2023-07-28T02:43:47;21.90;;;10.57;;
47599;SDS011;33323;52.124;6.018;2023-07-28T02:46:14;17.42;;;9.57;;
47599;SDS011;33323;52.124;6.018;2023-07-28T02:48:41;22.60;;;10.98;;
47599;SDS011;33323;52.124;6.018;2023-07-28T02:51:08;23.98;;;10.60;;
47599;SDS011;33323;52.124;6.018;2023-07-28T02:53:35;21.20;;;10.80;;
47599;SDS011;33323;52.124;6.018;2023-07-28T02:56:02;22.27;;;12.02;;
47599;SDS011;33323;52.124;6.018;2023-07-28T02:58:29;22.33;;;11.73;;
47599;SDS011;33323;52.124;6.018;2023-07-28T03:00:56;21.33;;;10.88;;
47599;SDS011;33323;52.124;6.018;2023-07-28T03:03:31;18.60;;;10.38;;
47599;SDS011;33323;52.124;6.018;2023-07-28T03:05:58;23.05;;;12.05;;
47599;SDS011;33323;52.124;6.018;2023-07-28T03:08:25;24.15;;;12.23;;
47599;SDS011;33323;52.124;6.018;2023-07-28T03:11:04;28.00;;;13.15;;
47599;SDS011;33323;52.124;6.018;2023-07-28T03:13:31;26.35;;;12.52;;
47599;SDS011;33323;52.124;6.018;2023-07-28T03:15:58;24.17;;;12.38;;
47599;SDS011;33323;52.124;6.018;2023-07-28T03:18:26;22.52;;;12.35;;
47599;SDS011;33323;52.124;6.018;2023-07-28T03:20:53;30.77;;;13.35;;
47599;SDS011;33323;52.124;6.018;2023-07-28T03:23:21;27.40;;;13.30;;
47599;SDS011;33323;52.124;6.018;2023-07-28T03:25:48;27.13;;;11.80;;
47599;SDS011;33323;52.124;6.018;2023-07-28T03:28:15;28.40;;;12.70;;
47599;SDS011;33323;52.124;6.018;2023-07-28T03:30:42;26.83;;;13.55;;
47599;SDS011;33323;52.124;6.018;2023-07-28T03:33:10;34.80;;;14.73;;
47599;SDS011;33323;52.124;6.018;2023-07-28T03:35:37;24.05;;;12.63;;
47599;SDS011;33323;52.124;6.018;2023-07-28T03:38:07;30.85;;;13.77;;
47599;SDS011;33323;52.124;6.018;2023-07-28T03:40:34;30.80;;;14.27;;
47599;SDS011;33323;52.124;6.018;2023-07-28T03:43:02;32.17;;;13.10;;
47599;SDS011;33323;52.124;6.018;2023-07-28T03:45:29;32.03;;;15.18;;
47599;SDS011;33323;52.124;6.018;2023-07-28T03:47:57;30.83;;;14.73;;
47599;SDS011;33323;52.124;6.018;2023-07-28T03:50:24;33.78;;;13.75;;
47599;SDS011;33323;52.124;6.018;2023-07-28T03:52:52;32.42;;;14.77;;
47599;SDS011;33323;52.124;6.018;2023-07-28T03:55:20;31.40;;;13.85;;
47599;SDS011;33323;52.124;6.018;2023-07-28T03:57:47;28.27;;;15.20;;
47599;SDS011;33323;52.124;6.018;2023-07-28T04:00:14;30.02;;;14.85;;
47599;SDS011;33323;52.124;6.018;2023-07-28T04:02:41;30.98;;;15.02;;
47599;SDS011;33323;52.124;6.018;2023-07-28T04:05:08;39.72;;;16.13;;
47599;SDS011;33323;52.124;6.018;2023-07-28T04:07:36;37.33;;;16.35;;
47599;SDS011;33323;52.124;6.018;2023-07-28T04:10:03;34.25;;;15.65;;
47599;SDS011;33323;52.124;6.018;2023-07-28T04:12:31;29.55;;;15.30;;
47599;SDS011;33323;52.124;6.018;2023-07-28T04:14:58;32.75;;;15.30;;
47599;SDS011;33323;52.124;6.018;2023-07-28T04:17:25;32.35;;;17.05;;
47599;SDS011;33323;52.124;6.018;2023-07-28T04:19:54;35.65;;;16.92;;
47599;SDS011;33323;52.124;6.018;2023-07-28T04:22:21;37.88;;;17.35;;
47599;SDS011;33323;52.124;6.018;2023-07-28T04:24:51;39.55;;;16.05;;
47599;SDS011;33323;52.124;6.018;2023-07-28T04:27:21;36.22;;;17.13;;
47599;SDS011;33323;52.124;6.018;2023-07-28T04:29:49;35.47;;;17.02;;
47599;SDS011;33323;52.124;6.018;2023-07-28T04:32:19;35.83;;;15.77;;
47599;SDS011;33323;52.124;6.018;2023-07-28T04:34:47;37.63;;;17.17;;
47599;SDS011;33323;52.124;6.018;2023-07-28T04:37:21;39.95;;;17.35;;
47599;SDS011;33323;52.124;6.018;2023-07-28T04:39:57;37.65;;;16.95;;
47599;SDS011;33323;52.124;6.018;2023-07-28T04:42:30;37.33;;;15.70;;
47599;SDS011;33323;52.124;6.018;2023-07-28T04:44:57;35.35;;;16.02;;
47599;SDS011;33323;52.124;6.018;2023-07-28T04:47:24;42.35;;;16.40;;
47599;SDS011;33323;52.124;6.018;2023-07-28T04:49:51;37.88;;;16.85;;
47599;SDS011;33323;52.124;6.018;2023-07-28T04:52:56;36.83;;;17.98;;
47599;SDS011;33323;52.124;6.018;2023-07-28T04:55:47;41.17;;;17.95;;
47599;SDS011;33323;52.124;6.018;2023-07-28T04:58:14;39.47;;;16.17;;
47599;SDS011;33323;52.124;6.018;2023-07-28T05:00:47;39.47;;;16.20;;
47599;SDS011;33323;52.124;6.018;2023-07-28T05:03:15;38.75;;;15.48;;
47599;SDS011;33323;52.124;6.018;2023-07-28T05:05:49;34.13;;;17.92;;
47599;SDS011;33323;52.124;6.018;2023-07-28T05:08:17;34.92;;;15.80;;
47599;SDS011;33323;52.124;6.018;2023-07-28T05:10:44;37.58;;;16.85;;
47599;SDS011;33323;52.124;6.018;2023-07-28T05:13:12;39.45;;;16.67;;
47599;SDS011;33323;52.124;6.018;2023-07-28T05:15:48;35.53;;;16.17;;
47599;SDS011;33323;52.124;6.018;2023-07-28T05:18:25;30.95;;;14.38;;
47599;SDS011;33323;52.124;6.018;2023-07-28T05:21:18;29.58;;;13.55;;
47599;SDS011;33323;52.124;6.018;2023-07-28T05:23:45;34.05;;;16.10;;
47599;SDS011;33323;52.124;6.018;2023-07-28T05:26:13;28.65;;;12.43;;
47599;SDS011;33323;52.124;6.018;2023-07-28T05:28:40;29.50;;;13.38;;
47599;SDS011;33323;52.124;6.018;2023-07-28T05:31:07;25.50;;;12.07;;
47599;SDS011;33323;52.124;6.018;2023-07-28T05:33:38;30.83;;;13.30;;
47599;SDS011;33323;52.124;6.018;2023-07-28T05:36:06;29.58;;;12.75;;
47599;SDS011;33323;52.124;6.018;2023-07-28T05:38:33;29.35;;;13.07;;
47599;SDS011;33323;52.124;6.018;2023-07-28T05:41:01;28.63;;;12.60;;
47599;SDS011;33323;52.124;6.018;2023-07-28T05:43:31;32.75;;;13.68;;
47599;SDS011;33323;52.124;6.018;2023-07-28T05:46:00;34.75;;;13.32;;
47599;SDS011;33323;52.124;6.018;2023-07-28T05:48:32;38.33;;;13.63;;
47599;SDS011;33323;52.124;6.018;2023-07-28T05:51:01;31.52;;;13.82;;
47599;SDS011;33323;52.124;6.018;2023-07-28T05:53:29;31.83;;;14.00;;
47599;SDS011;33323;52.124;6.018;2023-07-28T05:56:01;34.08;;;14.60;;
47599;SDS011;33323;52.124;6.018;2023-07-28T05:58:31;33.05;;;14.48;;
47599;SDS011;33323;52.124;6.018;2023-07-28T06:00:58;35.33;;;16.15;;
47599;SDS011;33323;52.124;6.018;2023-07-28T06:03:58;35.75;;;14.77;;
47599;SDS011;33323;52.124;6.018;2023-07-28T06:06:28;36.33;;;16.92;;
47599;SDS011;33323;52.124;6.018;2023-07-28T06:08:55;36.65;;;16.17;;
47599;SDS011;33323;52.124;6.018;2023-07-28T06:11:23;37.72;;;16.50;;
47599;SDS011;33323;52.124;6.018;2023-07-28T06:13:51;37.80;;;16.33;;
47599;SDS011;33323;52.124;6.018;2023-07-28T06:16:18;32.40;;;16.55;;
47599;SDS011;33323;52.124;6.018;2023-07-28T06:18:47;37.20;;;16.60;;
47599;SDS011;33323;52.124;6.018;2023-07-28T06:21:18;32.05;;;14.50;;
47599;SDS011;33323;52.124;6.018;2023-07-28T06:23:46;38.65;;;15.82;;
47599;SDS011;33323;52.124;6.018;2023-07-28T06:26:13;41.72;;;17.65;;
47599;SDS011;33323;52.124;6.018;2023-07-28T06:28:41;35.25;;;16.98;;
47599;SDS011;33323;52.124;6.018;2023-07-28T06:31:09;34.85;;;15.60;;
47599;SDS011;33323;52.124;6.018;2023-07-28T06:33:37;35.58;;;16.52;;
47599;SDS011;33323;52.124;6.018;2023-07-28T06:36:04;37.10;;;17.17;;
47599;SDS011;33323;52.124;6.018;2023-07-28T06:38:32;34.38;;;15.35;;
47599;SDS011;33323;52.124;6.018;2023-07-28T06:41:00;30.48;;;15.68;;
47599;SDS011;33323;52.124;6.018;2023-07-28T06:43:27;28.52;;;15.85;;
47599;SDS011;33323;52.124;6.018;2023-07-28T06:45:55;24.95;;;14.80;;
47599;SDS011;33323;52.124;6.018;2023-07-28T06:48:22;22.17;;;13.13;;
47599;SDS011;33323;52.124;6.018;2023-07-28T06:50:50;24.15;;;12.82;;
47599;SDS011;33323;52.124;6.018;2023-07-28T06:53:18;24.52;;;12.32;;
47599;SDS011;33323;52.124;6.018;2023-07-28T06:55:46;25.83;;;15.30;;
47599;SDS011;33323;52.124;6.018;2023-07-28T06:58:13;21.83;;;12.82;;
47599;SDS011;33323;52.124;6.018;2023-07-28T07:00:40;26.02;;;12.68;;
47599;SDS011;33323;52.124;6.018;2023-07-28T07:03:09;18.85;;;11.82;;
47599;SDS011;33323;52.124;6.018;2023-07-28T07:05:37;24.55;;;10.98;;
47599;SDS011;33323;52.124;6.018;2023-07-28T07:08:04;19.00;;;11.57;;
47599;SDS011;33323;52.124;6.018;2023-07-28T07:10:32;20.90;;;11.20;;
47599;SDS011;33323;52.124;6.018;2023-07-28T07:12:59;21.67;;;10.98;;
47599;SDS011;33323;52.124;6.018;2023-07-28T07:15:27;17.75;;;10.93;;
47599;SDS011;33323;52.124;6.018;2023-07-28T07:17:54;21.70;;;12.63;;
47599;SDS011;33323;52.124;6.018;2023-07-28T07:20:22;20.08;;;10.60;;
47599;SDS011;33323;52.124;6.018;2023-07-28T07:22:49;19.77;;;10.95;;
47599;SDS011;33323;52.124;6.018;2023-07-28T07:25:17;17.08;;;9.90;;
47599;SDS011;33323;52.124;6.018;2023-07-28T07:27:44;18.98;;;9.98;;
47599;SDS011;33323;52.124;6.018;2023-07-28T07:30:11;19.10;;;10.48;;
47599;SDS011;33323;52.124;6.018;2023-07-28T07:32:39;17.20;;;9.63;;
47599;SDS011;33323;52.124;6.018;2023-07-28T07:35:06;16.60;;;9.80;;
47599;SDS011;33323;52.124;6.018;2023-07-28T07:37:35;13.48;;;8.27;;
47599;SDS011;33323;52.124;6.018;2023-07-28T07:40:02;21.20;;;9.95;;
47599;SDS011;33323;52.124;6.018;2023-07-28T07:42:40;17.13;;;9.05;;
47599;SDS011;33323;52.124;6.018;2023-07-28T07:45:10;14.68;;;9.45;;
47599;SDS011;33323;52.124;6.018;2023-07-28T07:47:41;15.65;;;8.18;;
47599;SDS011;33323;52.124;6.018;2023-07-28T07:50:10;20.58;;;9.13;;
47599;SDS011;33323;52.124;6.018;2023-07-28T07:52:38;16.55;;;9.10;;
47599;SDS011;33323;52.124;6.018;2023-07-28T07:55:08;15.60;;;8.57;;
47599;SDS011;33323;52.124;6.018;2023-07-28T07:57:40;15.82;;;8.02;;
47599;SDS011;33323;52.124;6.018;2023-07-28T08:00:08;14.65;;;8.77;;
47599;SDS011;33323;52.124;6.018;2023-07-28T08:02:40;12.85;;;8.32;;
47599;SDS011;33323;52.124;6.018;2023-07-28T08:05:11;12.85;;;8.68;;
47599;SDS011;33323;52.124;6.018;2023-07-28T08:07:39;15.30;;;8.98;;
47599;SDS011;33323;52.124;6.018;2023-07-28T08:10:07;15.07;;;9.25;;
47599;SDS011;33323;52.124;6.018;2023-07-28T08:12:35;18.52;;;9.63;;
47599;SDS011;33323;52.124;6.018;2023-07-28T08:15:02;13.93;;;7.93;;
47599;SDS011;33323;52.124;6.018;2023-07-28T08:17:30;13.02;;;8.57;;
47599;SDS011;33323;52.124;6.018;2023-07-28T08:19:57;24.30;;;9.57;;
47599;SDS011;33323;52.124;6.018;2023-07-28T08:22:26;17.95;;;9.07;;
47599;SDS011;33323;52.124;6.018;2023-07-28T08:24:53;15.15;;;8.35;;
47599;SDS011;33323;52.124;6.018;2023-07-28T08:27:20;13.88;;;8.45;;
47599;SDS011;33323;52.124;6.018;2023-07-28T08:29:48;16.30;;;9.13;;
47599;SDS011;33323;52.124;6.018;2023-07-28T08:32:15;16.27;;;9.32;;
47599;SDS011;33323;52.124;6.018;2023-07-28T08:34:43;17.95;;;10.35;;
47599;SDS011;33323;52.124;6.018;2023-07-28T08:37:11;16.10;;;9.68;;
47599;SDS011;33323;52.124;6.018;2023-07-28T08:39:39;20.65;;;10.45;;
47599;SDS011;33323;52.124;6.018;2023-07-28T08:42:07;23.20;;;11.93;;
47599;SDS011;33323;52.124;6.018;2023-07-28T08:44:34;15.38;;;8.68;;
47599;SDS011;33323;52.124;6.018;2023-07-28T08:47:02;15.40;;;9.73;;
47599;SDS011;33323;52.124;6.018;2023-07-28T08:49:31;13.02;;;8.38;;
47599;SDS011;33323;52.124;6.018;2023-07-28T08:52:02;15.63;;;8.18;;
47599;SDS011;33323;52.124;6.018;2023-07-28T08:54:31;14.02;;;7.40;;
47599;SDS011;33323;52.124;6.018;2023-07-28T08:56:58;18.50;;;8.40;;
47599;SDS011;33323;52.124;6.018;2023-07-28T08:59:27;12.60;;;8.07;;
47599;SDS011;33323;52.124;6.018;2023-07-28T09:01:56;14.63;;;8.13;;
47599;SDS011;33323;52.124;6.018;2023-07-28T09:04:26;10.80;;;8.00;;
47599;SDS011;33323;52.124;6.018;2023-07-28T09:06:54;11.73;;;7.03;;
47599;SDS011;33323;52.124;6.018;2023-07-28T09:09:22;13.82;;;7.50;;
47599;SDS011;33323;52.124;6.018;2023-07-28T09:11:53;16.48;;;7.28;;
47599;SDS011;33323;52.124;6.018;2023-07-28T09:14:21;12.38;;;6.70;;
47599;SDS011;33323;52.124;6.018;2023-07-28T09:16:50;12.00;;;6.95;;
47599;SDS011;33323;52.124;6.018;2023-07-28T09:19:19;11.88;;;7.78;;
47599;SDS011;33323;52.124;6.018;2023-07-28T09:21:58;12.13;;;6.00;;
47599;SDS011;33323;52.124;6.018;2023-07-28T09:24:31;10.93;;;6.65;;
47599;SDS011;33323;52.124;6.018;2023-07-28T09:27:00;9.98;;;5.47;;
47599;SDS011;33323;52.124;6.018;2023-07-28T09:29:28;13.07;;;6.43;;
47599;SDS011;33323;52.124;6.018;2023-07-28T09:32:05;9.23;;;6.25;;
47599;SDS011;33323;52.124;6.018;2023-07-28T09:34:33;9.02;;;7.15;;
47599;SDS011;33323;52.124;6.018;2023-07-28T09:37:01;12.18;;;5.97;;
47599;SDS011;33323;52.124;6.018;2023-07-28T09:39:32;8.55;;;5.22;;
47599;SDS011;33323;52.124;6.018;2023-07-28T09:42:03;9.32;;;6.03;;
47599;SDS011;33323;52.124;6.018;2023-07-28T09:44:35;10.23;;;5.60;;
47599;SDS011;33323;52.124;6.018;2023-07-28T09:47:03;8.27;;;5.30;;
47599;SDS011;33323;52.124;6.018;2023-07-28T09:49:35;11.23;;;5.40;;
47599;SDS011;33323;52.124;6.018;2023-07-28T09:52:05;10.02;;;4.50;;
47599;SDS011;33323;52.124;6.018;2023-07-28T09:54:38;7.93;;;4.80;;
47599;SDS011;33323;52.124;6.018;2023-07-28T09:57:08;6.45;;;4.13;;
47599;SDS011;33323;52.124;6.018;2023-07-28T09:59:42;6.40;;;4.13;;
47599;SDS011;33323;52.124;6.018;2023-07-28T10:02:12;8.48;;;4.07;;
47599;SDS011;33323;52.124;6.018;2023-07-28T10:04:40;6.78;;;3.50;;
47599;SDS011;33323;52.124;6.018;2023-07-28T10:07:08;5.95;;;4.28;;
47599;SDS011;33323;52.124;6.018;2023-07-28T10:09:37;118.10;;;31.92;;
47599;SDS011;33323;52.124;6.018;2023-07-28T10:12:05;144.45;;;38.60;;
47599;SDS011;33323;52.124;6.018;2023-07-28T10:14:34;10.70;;;4.68;;
47599;SDS011;33323;52.124;6.018;2023-07-28T10:17:04;7.10;;;4.55;;
47599;SDS011;33323;52.124;6.018;2023-07-28T10:19:36;7.65;;;4.55;;
47599;SDS011;33323;52.124;6.018;2023-07-28T10:22:07;7.55;;;4.05;;
47599;SDS011;33323;52.124;6.018;2023-07-28T10:27:37;6.40;;;4.25;;
47599;SDS011;33323;52.124;6.018;2023-07-28T10:30:11;5.53;;;3.42;;
47599;SDS011;33323;52.124;6.018;2023-07-28T10:32:41;16.95;;;5.18;;
47599;SDS011;33323;52.124;6.018;2023-07-28T10:37:44;8.07;;;3.40;;
47599;SDS011;33323;52.124;6.018;2023-07-28T10:43:05;7.05;;;3.72;;
47599;SDS011;33323;52.124;6.018;2023-07-28T10:45:33;5.35;;;4.10;;
47599;SDS011;33323;52.124;6.018;2023-07-28T10:48:01;9.50;;;3.70;;
47599;SDS011;33323;52.124;6.018;2023-07-28T10:50:30;5.60;;;3.22;;
47599;SDS011;33323;52.124;6.018;2023-07-28T10:52:58;5.70;;;3.65;;
47599;SDS011;33323;52.124;6.018;2023-07-28T10:55:26;5.47;;;3.88;;
47599;SDS011;33323;52.124;6.018;2023-07-28T10:57:54;6.70;;;3.97;;
47599;SDS011;33323;52.124;6.018;2023-07-28T11:00:24;4.88;;;3.65;;
47599;SDS011;33323;52.124;6.018;2023-07-28T11:02:52;4.20;;;3.40;;
47599;SDS011;33323;52.124;6.018;2023-07-28T11:05:27;8.43;;;3.20;;
47599;SDS011;33323;52.124;6.018;2023-07-28T11:07:57;5.00;;;3.22;;
47599;SDS011;33323;52.124;6.018;2023-07-28T11:10:30;4.93;;;3.17;;
47599;SDS011;33323;52.124;6.018;2023-07-28T11:12:59;5.05;;;2.95;;
47599;SDS011;33323;52.124;6.018;2023-07-28T11:15:48;6.05;;;3.10;;
47599;SDS011;33323;52.124;6.018;2023-07-28T11:18:15;5.00;;;3.30;;
47599;SDS011;33323;52.124;6.018;2023-07-28T11:20:43;4.85;;;2.95;;
47599;SDS011;33323;52.124;6.018;2023-07-28T11:23:13;5.63;;;3.35;;
47599;SDS011;33323;52.124;6.018;2023-07-28T11:25:41;5.57;;;3.22;;
47599;SDS011;33323;52.124;6.018;2023-07-28T11:28:10;6.20;;;2.80;;
47599;SDS011;33323;52.124;6.018;2023-07-28T11:30:38;4.25;;;2.97;;
47599;SDS011;33323;52.124;6.018;2023-07-28T11:33:07;4.05;;;2.40;;
47599;SDS011;33323;52.124;6.018;2023-07-28T11:35:37;4.30;;;2.90;;
47599;SDS011;33323;52.124;6.018;2023-07-28T11:38:06;6.53;;;3.30;;
47599;SDS011;33323;52.124;6.018;2023-07-28T11:40:34;5.88;;;3.30;;
47599;SDS011;33323;52.124;6.018;2023-07-28T11:43:02;6.22;;;3.03;;
47599;SDS011;33323;52.124;6.018;2023-07-28T11:45:30;4.43;;;3.13;;
47599;SDS011;33323;52.124;6.018;2023-07-28T11:47:58;6.32;;;3.20;;
47599;SDS011;33323;52.124;6.018;2023-07-28T11:50:28;7.15;;;4.03;;
47599;SDS011;33323;52.124;6.018;2023-07-28T11:53:00;6.90;;;3.10;;
47599;SDS011;33323;52.124;6.018;2023-07-28T11:55:28;6.97;;;3.33;;
47599;SDS011;33323;52.124;6.018;2023-07-28T11:57:57;6.20;;;3.60;;
47599;SDS011;33323;52.124;6.018;2023-07-28T12:00:28;3.63;;;3.13;;
47599;SDS011;33323;52.124;6.018;2023-07-28T12:05:40;5.93;;;3.60;;
47599;SDS011;33323;52.124;6.018;2023-07-28T12:08:36;5.13;;;3.65;;
47599;SDS011;33323;52.124;6.018;2023-07-28T12:11:04;6.22;;;3.90;;
47599;SDS011;33323;52.124;6.018;2023-07-28T12:13:46;6.00;;;3.38;;
47599;SDS011;33323;52.124;6.018;2023-07-28T12:19:23;5.05;;;4.50;;
47599;SDS011;33323;52.124;6.018;2023-07-28T12:21:51;6.93;;;4.35;;
47599;SDS011;33323;52.124;6.018;2023-07-28T12:24:19;5.65;;;4.35;;
47599;SDS011;33323;52.124;6.018;2023-07-28T12:26:48;7.38;;;4.50;;
47599;SDS011;33323;52.124;6.018;2023-07-28T12:29:18;6.00;;;4.15;;
47599;SDS011;33323;52.124;6.018;2023-07-28T12:31:57;5.82;;;4.72;;
47599;SDS011;33323;52.124;6.018;2023-07-28T12:34:28;6.05;;;4.15;;
47599;SDS011;33323;52.124;6.018;2023-07-28T12:36:56;9.10;;;5.15;;
47599;SDS011;33323;52.124;6.018;2023-07-28T12:39:24;6.85;;;4.90;;
47599;SDS011;33323;52.124;6.018;2023-07-28T12:41:55;5.70;;;4.15;;
47599;SDS011;33323;52.124;6.018;2023-07-28T12:44:25;6.05;;;4.55;;
47599;SDS011;33323;52.124;6.018;2023-07-28T12:46:56;4.47;;;4.07;;
47599;SDS011;33323;52.124;6.018;2023-07-28T12:49:24;6.28;;;5.03;;
47599;SDS011;33323;52.124;6.018;2023-07-28T12:51:51;5.22;;;4.35;;
47599;SDS011;33323;52.124;6.018;2023-07-28T12:54:22;9.20;;;4.15;;
47599;SDS011;33323;52.124;6.018;2023-07-28T12:56:51;6.93;;;5.03;;
47599;SDS011;33323;52.124;6.018;2023-07-28T12:59:37;9.35;;;5.07;;
47599;SDS011;33323;52.124;6.018;2023-07-28T13:02:07;6.90;;;4.88;;
47599;SDS011;33323;52.124;6.018;2023-07-28T13:04:35;8.20;;;5.05;;
47599;SDS011;33323;52.124;6.018;2023-07-28T13:07:03;5.95;;;4.53;;
47599;SDS011;33323;52.124;6.018;2023-07-28T13:09:34;7.88;;;4.55;;
47599;SDS011;33323;52.124;6.018;2023-07-28T13:12:02;5.55;;;4.32;;
47599;SDS011;33323;52.124;6.018;2023-07-28T13:14:33;8.55;;;4.28;;
47599;SDS011;33323;52.124;6.018;2023-07-28T13:17:02;6.43;;;4.60;;
47599;SDS011;33323;52.124;6.018;2023-07-28T13:19:30;6.32;;;5.10;;
47599;SDS011;33323;52.124;6.018;2023-07-28T13:21:57;6.05;;;4.70;;
47599;SDS011;33323;52.124;6.018;2023-07-28T13:24:24;8.65;;;4.45;;
47599;SDS011;33323;52.124;6.018;2023-07-28T13:26:52;6.75;;;4.63;;
47599;SDS011;33323;52.124;6.018;2023-07-28T13:29:19;5.10;;;3.85;;
47599;SDS011;33323;52.124;6.018;2023-07-28T13:31:47;6.65;;;4.35;;
47599;SDS011;33323;52.124;6.018;2023-07-28T13:34:14;6.07;;;3.70;;
47599;SDS011;33323;52.124;6.018;2023-07-28T13:36:42;5.18;;;4.10;;
47599;SDS011;33323;52.124;6.018;2023-07-28T13:39:10;5.45;;;4.18;;
47599;SDS011;33323;52.124;6.018;2023-07-28T13:41:38;5.00;;;3.90;;
47599;SDS011;33323;52.124;6.018;2023-07-28T13:44:05;7.13;;;3.53;;
47599;SDS011;33323;52.124;6.018;2023-07-28T13:46:39;8.27;;;4.25;;
47599;SDS011;33323;52.124;6.018;2023-07-28T13:49:07;6.50;;;3.25;;
47599;SDS011;33323;52.124;6.018;2023-07-28T13:51:35;8.00;;;4.20;;
47599;SDS011;33323;52.124;6.018;2023-07-28T13:54:05;4.82;;;3.33;;
47599;SDS011;33323;52.124;6.018;2023-07-28T13:56:36;3.83;;;2.97;;
47599;SDS011;33323;52.124;6.018;2023-07-28T13:59:26;5.60;;;3.30;;
47599;SDS011;33323;52.124;6.018;2023-07-28T14:01:53;3.45;;;2.67;;
47599;SDS011;33323;52.124;6.018;2023-07-28T14:04:22;6.40;;;3.03;;
47599;SDS011;33323;52.124;6.018;2023-07-28T14:06:49;6.90;;;3.03;;
47599;SDS011;33323;52.124;6.018;2023-07-28T14:09:17;4.78;;;2.72;;
47599;SDS011;33323;52.124;6.018;2023-07-28T14:11:45;6.00;;;3.40;;
47599;SDS011;33323;52.124;6.018;2023-07-28T14:14:13;5.43;;;2.90;;
47599;SDS011;33323;52.124;6.018;2023-07-28T14:16:41;4.00;;;3.08;;
47599;SDS011;33323;52.124;6.018;2023-07-28T14:19:09;3.60;;;2.60;;
47599;SDS011;33323;52.124;6.018;2023-07-28T14:21:37;4.10;;;2.55;;
47599;SDS011;33323;52.124;6.018;2023-07-28T14:24:06;4.00;;;2.22;;
47599;SDS011;33323;52.124;6.018;2023-07-28T14:26:33;7.53;;;3.28;;
47599;SDS011;33323;52.124;6.018;2023-07-28T14:29:01;9.10;;;4.25;;
47599;SDS011;33323;52.124;6.018;2023-07-28T14:31:29;4.22;;;3.15;;
47599;SDS011;33323;52.124;6.018;2023-07-28T14:33:57;5.38;;;2.90;;
47599;SDS011;33323;52.124;6.018;2023-07-28T14:36:27;5.15;;;2.67;;
47599;SDS011;33323;52.124;6.018;2023-07-28T14:38:54;2.88;;;2.47;;
47599;SDS011;33323;52.124;6.018;2023-07-28T14:41:24;2.90;;;2.40;;
47599;SDS011;33323;52.124;6.018;2023-07-28T14:43:52;4.65;;;2.13;;
47599;SDS011;33323;52.124;6.018;2023-07-28T14:46:19;4.78;;;2.38;;
47599;SDS011;33323;52.124;6.018;2023-07-28T14:48:49;4.15;;;2.22;;
47599;SDS011;33323;52.124;6.018;2023-07-28T14:51:16;2.97;;;2.00;;
47599;SDS011;33323;52.124;6.018;2023-07-28T14:53:44;6.78;;;2.95;;
47599;SDS011;33323;52.124;6.018;2023-07-28T14:56:14;3.72;;;3.08;;
47599;SDS011;33323;52.124;6.018;2023-07-28T14:58:44;4.07;;;2.70;;
47599;SDS011;33323;52.124;6.018;2023-07-28T15:01:12;4.88;;;3.00;;
47599;SDS011;33323;52.124;6.018;2023-07-28T15:03:40;3.67;;;3.17;;
47599;SDS011;33323;52.124;6.018;2023-07-28T15:06:07;3.60;;;3.20;;